sensor_id;sensor_type;location;lat;lon;timestamp;P1;durP1;ratioP1;P2;durP2;ratioP2
23642;SDS011;11998;55.788;37.572;2022-08-19T00:00:12;11.90;;;5.70;;
23642;SDS011;11998;55.788;37.572;2022-08-19T00:01:14;11.35;;;5.60;;
23642;SDS011;11998;55.788;37.572;2022-08-19T00:02:14;9.65;;;6.18;;
23642;SDS011;11998;55.788;37.572;2022-08-19T00:03:15;12.32;;;6.53;;
23642;SDS011;11998;55.788;37.572;2022-08-19T00:04:17;12.55;;;6.20;;
23642;SDS011;11998;55.788;37.572;2022-08-19T00:05:19;11.98;;;6.47;;
23642;SDS011;11998;55.788;37.572;2022-08-19T00:06:21;11.07;;;6.20;;
23642;SDS011;11998;55.788;37.572;2022-08-19T00:07:21;11.25;;;5.75;;
23642;SDS011;11998;55.788;37.572;2022-08-19T00:08:22;12.23;;;6.57;;
23642;SDS011;11998;55.788;37.572;2022-08-19T00:09:23;9.43;;;6.03;;
23642;SDS011;11998;55.788;37.572;2022-08-19T00:10:24;14.77;;;6.05;;
23642;SDS011;11998;55.788;37.572;2022-08-19T00:11:25;10.35;;;6.30;;
23642;SDS011;11998;55.788;37.572;2022-08-19T00:12:27;9.25;;;5.68;;
23642;SDS011;11998;55.788;37.572;2022-08-19T00:13:28;10.63;;;6.15;;
23642;SDS011;11998;55.788;37.572;2022-08-19T00:14:29;11.63;;;6.25;;
23642;SDS011;11998;55.788;37.572;2022-08-19T00:15:33;8.88;;;6.32;;
23642;SDS011;11998;55.788;37.572;2022-08-19T00:16:33;10.90;;;6.90;;
23642;SDS011;11998;55.788;37.572;2022-08-19T00:17:34;12.45;;;6.10;;
23642;SDS011;11998;55.788;37.572;2022-08-19T00:18:34;17.50;;;6.88;;
23642;SDS011;11998;55.788;37.572;2022-08-19T00:19:35;9.02;;;6.00;;
23642;SDS011;11998;55.788;37.572;2022-08-19T00:20:36;9.40;;;5.80;;
23642;SDS011;11998;55.788;37.572;2022-08-19T00:21:40;12.70;;;5.82;;
23642;SDS011;11998;55.788;37.572;2022-08-19T00:22:41;11.75;;;6.50;;
23642;SDS011;11998;55.788;37.572;2022-08-19T00:23:41;16.25;;;6.38;;
23642;SDS011;11998;55.788;37.572;2022-08-19T00:24:46;13.50;;;6.88;;
23642;SDS011;11998;55.788;37.572;2022-08-19T00:25:49;12.05;;;7.20;;
23642;SDS011;11998;55.788;37.572;2022-08-19T00:26:50;13.98;;;7.07;;
23642;SDS011;11998;55.788;37.572;2022-08-19T00:27:52;9.10;;;6.70;;
23642;SDS011;11998;55.788;37.572;2022-08-19T00:28:52;8.98;;;6.50;;
23642;SDS011;11998;55.788;37.572;2022-08-19T00:29:54;9.93;;;7.15;;
23642;SDS011;11998;55.788;37.572;2022-08-19T00:30:54;12.13;;;7.18;;
23642;SDS011;11998;55.788;37.572;2022-08-19T00:31:55;11.63;;;7.18;;
23642;SDS011;11998;55.788;37.572;2022-08-19T00:32:58;10.63;;;6.30;;
23642;SDS011;11998;55.788;37.572;2022-08-19T00:33:59;12.85;;;6.55;;
23642;SDS011;11998;55.788;37.572;2022-08-19T00:35:00;13.50;;;7.30;;
23642;SDS011;11998;55.788;37.572;2022-08-19T00:36:05;16.30;;;7.32;;
23642;SDS011;11998;55.788;37.572;2022-08-19T00:37:07;12.23;;;7.45;;
23642;SDS011;11998;55.788;37.572;2022-08-19T00:38:08;15.30;;;6.97;;
23642;SDS011;11998;55.788;37.572;2022-08-19T00:39:08;12.77;;;7.10;;
23642;SDS011;11998;55.788;37.572;2022-08-19T00:40:10;14.65;;;6.78;;
23642;SDS011;11998;55.788;37.572;2022-08-19T00:41:13;15.05;;;7.40;;
23642;SDS011;11998;55.788;37.572;2022-08-19T00:42:18;12.60;;;7.22;;
23642;SDS011;11998;55.788;37.572;2022-08-19T00:43:22;15.20;;;7.47;;
23642;SDS011;11998;55.788;37.572;2022-08-19T00:44:25;14.43;;;7.50;;
23642;SDS011;11998;55.788;37.572;2022-08-19T00:45:28;12.20;;;7.70;;
23642;SDS011;11998;55.788;37.572;2022-08-19T00:46:32;17.65;;;7.90;;
23642;SDS011;11998;55.788;37.572;2022-08-19T00:47:33;19.27;;;7.50;;
23642;SDS011;11998;55.788;37.572;2022-08-19T00:48:34;12.77;;;7.50;;
23642;SDS011;11998;55.788;37.572;2022-08-19T00:50:09;14.25;;;7.90;;
23642;SDS011;11998;55.788;37.572;2022-08-19T00:51:03;22.67;;;8.15;;
23642;SDS011;11998;55.788;37.572;2022-08-19T00:52:11;14.07;;;7.22;;
23642;SDS011;11998;55.788;37.572;2022-08-19T00:53:15;14.45;;;7.68;;
23642;SDS011;11998;55.788;37.572;2022-08-19T00:54:19;17.58;;;7.82;;
23642;SDS011;11998;55.788;37.572;2022-08-19T00:55:22;11.02;;;7.75;;
23642;SDS011;11998;55.788;37.572;2022-08-19T00:56:25;17.27;;;8.05;;
23642;SDS011;11998;55.788;37.572;2022-08-19T00:57:32;12.07;;;7.22;;
23642;SDS011;11998;55.788;37.572;2022-08-19T00:58:37;15.20;;;7.93;;
23642;SDS011;11998;55.788;37.572;2022-08-19T00:59:38;16.55;;;8.23;;
23642;SDS011;11998;55.788;37.572;2022-08-19T01:00:40;13.25;;;7.85;;
23642;SDS011;11998;55.788;37.572;2022-08-19T01:01:42;13.05;;;7.30;;
23642;SDS011;11998;55.788;37.572;2022-08-19T01:02:44;15.07;;;8.15;;
23642;SDS011;11998;55.788;37.572;2022-08-19T01:03:45;19.65;;;8.30;;
23642;SDS011;11998;55.788;37.572;2022-08-19T01:04:45;14.50;;;8.18;;
23642;SDS011;11998;55.788;37.572;2022-08-19T01:05:46;13.23;;;8.13;;
23642;SDS011;11998;55.788;37.572;2022-08-19T01:06:48;14.73;;;7.57;;
23642;SDS011;11998;55.788;37.572;2022-08-19T01:07:49;16.27;;;7.85;;
23642;SDS011;11998;55.788;37.572;2022-08-19T01:08:51;14.13;;;7.90;;
23642;SDS011;11998;55.788;37.572;2022-08-19T01:09:51;14.70;;;7.47;;
23642;SDS011;11998;55.788;37.572;2022-08-19T01:10:54;14.70;;;7.88;;
23642;SDS011;11998;55.788;37.572;2022-08-19T01:11:58;12.57;;;7.43;;
23642;SDS011;11998;55.788;37.572;2022-08-19T01:12:59;13.45;;;7.43;;
23642;SDS011;11998;55.788;37.572;2022-08-19T01:14:01;11.68;;;7.50;;
23642;SDS011;11998;55.788;37.572;2022-08-19T01:15:03;15.57;;;7.95;;
23642;SDS011;11998;55.788;37.572;2022-08-19T01:16:08;12.68;;;7.60;;
23642;SDS011;11998;55.788;37.572;2022-08-19T01:17:11;16.48;;;7.82;;
23642;SDS011;11998;55.788;37.572;2022-08-19T01:18:12;12.85;;;7.85;;
23642;SDS011;11998;55.788;37.572;2022-08-19T01:19:22;16.42;;;7.50;;
23642;SDS011;11998;55.788;37.572;2022-08-19T01:20:27;15.10;;;7.93;;
23642;SDS011;11998;55.788;37.572;2022-08-19T01:21:33;15.93;;;8.05;;
23642;SDS011;11998;55.788;37.572;2022-08-19T01:22:42;16.33;;;8.00;;
23642;SDS011;11998;55.788;37.572;2022-08-19T01:23:48;25.40;;;7.95;;
23642;SDS011;11998;55.788;37.572;2022-08-19T01:24:49;17.15;;;7.65;;
23642;SDS011;11998;55.788;37.572;2022-08-19T01:25:51;15.80;;;7.28;;
23642;SDS011;11998;55.788;37.572;2022-08-19T01:26:54;11.70;;;7.47;;
23642;SDS011;11998;55.788;37.572;2022-08-19T01:27:55;16.58;;;7.63;;
23642;SDS011;11998;55.788;37.572;2022-08-19T01:28:56;14.88;;;7.43;;
23642;SDS011;11998;55.788;37.572;2022-08-19T01:29:58;12.52;;;7.38;;
23642;SDS011;11998;55.788;37.572;2022-08-19T01:30:58;13.45;;;7.65;;
23642;SDS011;11998;55.788;37.572;2022-08-19T01:31:59;13.27;;;7.68;;
23642;SDS011;11998;55.788;37.572;2022-08-19T01:33:02;16.67;;;8.18;;
23642;SDS011;11998;55.788;37.572;2022-08-19T01:34:05;12.35;;;7.63;;
23642;SDS011;11998;55.788;37.572;2022-08-19T01:35:07;15.77;;;7.40;;
23642;SDS011;11998;55.788;37.572;2022-08-19T01:36:10;13.50;;;7.60;;
23642;SDS011;11998;55.788;37.572;2022-08-19T01:37:13;13.85;;;7.32;;
23642;SDS011;11998;55.788;37.572;2022-08-19T01:38:25;12.32;;;7.93;;
23642;SDS011;11998;55.788;37.572;2022-08-19T01:39:27;16.42;;;7.85;;
23642;SDS011;11998;55.788;37.572;2022-08-19T01:40:30;15.82;;;7.95;;
23642;SDS011;11998;55.788;37.572;2022-08-19T01:41:33;11.02;;;7.72;;
23642;SDS011;11998;55.788;37.572;2022-08-19T01:42:34;12.75;;;7.72;;
23642;SDS011;11998;55.788;37.572;2022-08-19T01:43:35;13.30;;;7.15;;
23642;SDS011;11998;55.788;37.572;2022-08-19T01:44:36;10.40;;;7.00;;
23642;SDS011;11998;55.788;37.572;2022-08-19T01:45:38;17.33;;;7.40;;
23642;SDS011;11998;55.788;37.572;2022-08-19T01:46:40;12.20;;;7.28;;
23642;SDS011;11998;55.788;37.572;2022-08-19T01:47:41;20.35;;;7.70;;
23642;SDS011;11998;55.788;37.572;2022-08-19T01:48:42;13.85;;;7.63;;
23642;SDS011;11998;55.788;37.572;2022-08-19T01:49:45;9.63;;;7.53;;
23642;SDS011;11998;55.788;37.572;2022-08-19T01:50:46;12.40;;;6.72;;
23642;SDS011;11998;55.788;37.572;2022-08-19T01:51:48;15.52;;;6.93;;
23642;SDS011;11998;55.788;37.572;2022-08-19T01:52:49;12.60;;;7.10;;
23642;SDS011;11998;55.788;37.572;2022-08-19T01:53:50;15.32;;;7.65;;
23642;SDS011;11998;55.788;37.572;2022-08-19T01:54:52;11.60;;;7.57;;
23642;SDS011;11998;55.788;37.572;2022-08-19T01:55:52;16.05;;;9.18;;
23642;SDS011;11998;55.788;37.572;2022-08-19T01:56:55;12.63;;;7.35;;
23642;SDS011;11998;55.788;37.572;2022-08-19T01:58:02;11.30;;;7.57;;
23642;SDS011;11998;55.788;37.572;2022-08-19T01:59:09;12.80;;;7.70;;
23642;SDS011;11998;55.788;37.572;2022-08-19T02:00:12;11.90;;;7.20;;
23642;SDS011;11998;55.788;37.572;2022-08-19T02:01:15;12.23;;;7.38;;
23642;SDS011;11998;55.788;37.572;2022-08-19T02:02:17;14.35;;;7.45;;
23642;SDS011;11998;55.788;37.572;2022-08-19T02:03:18;13.88;;;7.95;;
23642;SDS011;11998;55.788;37.572;2022-08-19T02:04:18;11.18;;;7.20;;
23642;SDS011;11998;55.788;37.572;2022-08-19T02:05:19;13.05;;;7.40;;
23642;SDS011;11998;55.788;37.572;2022-08-19T02:06:21;11.27;;;7.03;;
23642;SDS011;11998;55.788;37.572;2022-08-19T02:07:22;14.68;;;7.35;;
23642;SDS011;11998;55.788;37.572;2022-08-19T02:08:22;12.80;;;7.20;;
23642;SDS011;11998;55.788;37.572;2022-08-19T02:09:23;13.70;;;7.38;;
23642;SDS011;11998;55.788;37.572;2022-08-19T02:10:23;15.43;;;7.60;;
23642;SDS011;11998;55.788;37.572;2022-08-19T02:11:29;11.27;;;7.30;;
23642;SDS011;11998;55.788;37.572;2022-08-19T02:12:32;14.00;;;7.78;;
23642;SDS011;11998;55.788;37.572;2022-08-19T02:13:33;9.40;;;7.03;;
23642;SDS011;11998;55.788;37.572;2022-08-19T02:14:34;13.77;;;6.65;;
23642;SDS011;11998;55.788;37.572;2022-08-19T02:15:36;11.18;;;7.32;;
23642;SDS011;11998;55.788;37.572;2022-08-19T02:16:37;13.55;;;7.22;;
23642;SDS011;11998;55.788;37.572;2022-08-19T02:17:38;17.85;;;7.47;;
23642;SDS011;11998;55.788;37.572;2022-08-19T02:18:39;13.25;;;7.13;;
23642;SDS011;11998;55.788;37.572;2022-08-19T02:19:39;16.77;;;7.28;;
23642;SDS011;11998;55.788;37.572;2022-08-19T02:20:41;14.25;;;7.43;;
23642;SDS011;11998;55.788;37.572;2022-08-19T02:21:42;11.95;;;7.32;;
23642;SDS011;11998;55.788;37.572;2022-08-19T02:22:43;19.58;;;8.55;;
23642;SDS011;11998;55.788;37.572;2022-08-19T02:23:44;12.10;;;6.75;;
23642;SDS011;11998;55.788;37.572;2022-08-19T02:24:45;9.27;;;6.80;;
23642;SDS011;11998;55.788;37.572;2022-08-19T02:25:47;17.13;;;7.63;;
23642;SDS011;11998;55.788;37.572;2022-08-19T02:26:48;12.10;;;7.18;;
23642;SDS011;11998;55.788;37.572;2022-08-19T02:27:49;10.60;;;7.22;;
23642;SDS011;11998;55.788;37.572;2022-08-19T02:28:49;12.90;;;7.03;;
23642;SDS011;11998;55.788;37.572;2022-08-19T02:29:50;10.32;;;7.30;;
23642;SDS011;11998;55.788;37.572;2022-08-19T02:30:51;12.90;;;6.40;;
23642;SDS011;11998;55.788;37.572;2022-08-19T02:31:51;12.73;;;7.20;;
23642;SDS011;11998;55.788;37.572;2022-08-19T02:32:52;11.38;;;6.70;;
23642;SDS011;11998;55.788;37.572;2022-08-19T02:33:53;10.50;;;6.70;;
23642;SDS011;11998;55.788;37.572;2022-08-19T02:34:55;10.43;;;7.00;;
23642;SDS011;11998;55.788;37.572;2022-08-19T02:35:56;13.70;;;7.28;;
23642;SDS011;11998;55.788;37.572;2022-08-19T02:36:56;12.77;;;7.15;;
23642;SDS011;11998;55.788;37.572;2022-08-19T02:37:57;13.68;;;6.72;;
23642;SDS011;11998;55.788;37.572;2022-08-19T02:39:16;10.80;;;7.00;;
23642;SDS011;11998;55.788;37.572;2022-08-19T02:40:17;11.38;;;6.68;;
23642;SDS011;11998;55.788;37.572;2022-08-19T02:41:19;10.10;;;6.53;;
23642;SDS011;11998;55.788;37.572;2022-08-19T02:42:22;10.50;;;6.88;;
23642;SDS011;11998;55.788;37.572;2022-08-19T02:43:23;14.13;;;7.32;;
23642;SDS011;11998;55.788;37.572;2022-08-19T02:44:24;8.77;;;6.18;;
23642;SDS011;11998;55.788;37.572;2022-08-19T02:45:25;13.02;;;7.70;;
23642;SDS011;11998;55.788;37.572;2022-08-19T02:46:27;11.45;;;6.85;;
23642;SDS011;11998;55.788;37.572;2022-08-19T02:47:29;8.57;;;6.47;;
23642;SDS011;11998;55.788;37.572;2022-08-19T02:48:29;11.52;;;6.65;;
23642;SDS011;11998;55.788;37.572;2022-08-19T02:49:31;12.43;;;7.20;;
23642;SDS011;11998;55.788;37.572;2022-08-19T02:50:31;14.50;;;6.38;;
23642;SDS011;11998;55.788;37.572;2022-08-19T02:51:33;11.73;;;6.47;;
23642;SDS011;11998;55.788;37.572;2022-08-19T02:52:36;13.93;;;6.72;;
23642;SDS011;11998;55.788;37.572;2022-08-19T02:53:36;13.55;;;6.68;;
23642;SDS011;11998;55.788;37.572;2022-08-19T02:54:37;11.65;;;6.80;;
23642;SDS011;11998;55.788;37.572;2022-08-19T02:55:47;14.23;;;6.50;;
23642;SDS011;11998;55.788;37.572;2022-08-19T02:56:48;10.85;;;6.82;;
23642;SDS011;11998;55.788;37.572;2022-08-19T02:57:48;13.98;;;7.22;;
23642;SDS011;11998;55.788;37.572;2022-08-19T02:58:49;12.38;;;6.63;;
23642;SDS011;11998;55.788;37.572;2022-08-19T02:59:50;17.17;;;6.43;;
23642;SDS011;11998;55.788;37.572;2022-08-19T03:00:52;14.32;;;6.50;;
23642;SDS011;11998;55.788;37.572;2022-08-19T03:01:54;12.45;;;6.43;;
23642;SDS011;11998;55.788;37.572;2022-08-19T03:02:54;13.05;;;6.47;;
23642;SDS011;11998;55.788;37.572;2022-08-19T03:03:56;11.98;;;6.93;;
23642;SDS011;11998;55.788;37.572;2022-08-19T03:04:58;15.05;;;7.00;;
23642;SDS011;11998;55.788;37.572;2022-08-19T03:06:03;11.75;;;6.03;;
23642;SDS011;11998;55.788;37.572;2022-08-19T03:07:12;17.92;;;7.03;;
23642;SDS011;11998;55.788;37.572;2022-08-19T03:08:14;7.82;;;6.20;;
23642;SDS011;11998;55.788;37.572;2022-08-19T03:09:16;16.73;;;6.15;;
23642;SDS011;11998;55.788;37.572;2022-08-19T03:10:18;9.70;;;6.35;;
23642;SDS011;11998;55.788;37.572;2022-08-19T03:11:23;13.23;;;6.63;;
23642;SDS011;11998;55.788;37.572;2022-08-19T03:12:25;12.70;;;6.93;;
23642;SDS011;11998;55.788;37.572;2022-08-19T03:13:26;13.32;;;6.38;;
23642;SDS011;11998;55.788;37.572;2022-08-19T03:14:26;11.35;;;6.63;;
23642;SDS011;11998;55.788;37.572;2022-08-19T03:15:30;15.30;;;6.68;;
23642;SDS011;11998;55.788;37.572;2022-08-19T03:16:31;13.23;;;7.18;;
23642;SDS011;11998;55.788;37.572;2022-08-19T03:17:34;10.82;;;6.68;;
23642;SDS011;11998;55.788;37.572;2022-08-19T03:18:35;11.88;;;6.82;;
23642;SDS011;11998;55.788;37.572;2022-08-19T03:19:36;15.32;;;6.25;;
23642;SDS011;11998;55.788;37.572;2022-08-19T03:20:56;11.07;;;6.97;;
23642;SDS011;11998;55.788;37.572;2022-08-19T03:21:57;9.63;;;6.43;;
23642;SDS011;11998;55.788;37.572;2022-08-19T03:22:58;12.50;;;6.40;;
23642;SDS011;11998;55.788;37.572;2022-08-19T03:24:03;9.00;;;6.03;;
23642;SDS011;11998;55.788;37.572;2022-08-19T03:25:06;13.27;;;7.03;;
23642;SDS011;11998;55.788;37.572;2022-08-19T03:26:06;10.77;;;6.78;;
23642;SDS011;11998;55.788;37.572;2022-08-19T03:27:07;14.50;;;6.85;;
23642;SDS011;11998;55.788;37.572;2022-08-19T03:28:07;11.90;;;6.40;;
23642;SDS011;11998;55.788;37.572;2022-08-19T03:29:08;13.80;;;6.70;;
23642;SDS011;11998;55.788;37.572;2022-08-19T03:30:11;10.07;;;6.78;;
23642;SDS011;11998;55.788;37.572;2022-08-19T03:31:13;8.48;;;6.38;;
23642;SDS011;11998;55.788;37.572;2022-08-19T03:32:14;13.85;;;6.35;;
23642;SDS011;11998;55.788;37.572;2022-08-19T03:33:14;11.00;;;6.07;;
23642;SDS011;11998;55.788;37.572;2022-08-19T03:34:18;13.88;;;7.10;;
23642;SDS011;11998;55.788;37.572;2022-08-19T03:35:21;13.95;;;6.85;;
23642;SDS011;11998;55.788;37.572;2022-08-19T03:36:22;14.20;;;6.40;;
23642;SDS011;11998;55.788;37.572;2022-08-19T03:37:24;12.10;;;6.85;;
23642;SDS011;11998;55.788;37.572;2022-08-19T03:38:25;11.60;;;6.90;;
23642;SDS011;11998;55.788;37.572;2022-08-19T03:39:26;9.82;;;6.32;;
23642;SDS011;11998;55.788;37.572;2022-08-19T03:40:27;12.73;;;6.05;;
23642;SDS011;11998;55.788;37.572;2022-08-19T03:41:31;14.57;;;7.07;;
23642;SDS011;11998;55.788;37.572;2022-08-19T03:42:36;10.88;;;6.47;;
23642;SDS011;11998;55.788;37.572;2022-08-19T03:43:38;10.98;;;6.65;;
23642;SDS011;11998;55.788;37.572;2022-08-19T03:44:40;9.85;;;6.15;;
23642;SDS011;11998;55.788;37.572;2022-08-19T03:45:42;15.93;;;6.50;;
23642;SDS011;11998;55.788;37.572;2022-08-19T03:46:42;9.35;;;6.10;;
23642;SDS011;11998;55.788;37.572;2022-08-19T03:47:43;12.60;;;6.38;;
23642;SDS011;11998;55.788;37.572;2022-08-19T03:48:45;14.80;;;6.65;;
23642;SDS011;11998;55.788;37.572;2022-08-19T03:49:48;12.02;;;6.07;;
23642;SDS011;11998;55.788;37.572;2022-08-19T03:50:48;14.25;;;6.43;;
23642;SDS011;11998;55.788;37.572;2022-08-19T03:51:50;14.35;;;6.28;;
23642;SDS011;11998;55.788;37.572;2022-08-19T03:52:51;12.63;;;6.32;;
23642;SDS011;11998;55.788;37.572;2022-08-19T03:53:52;10.20;;;5.78;;
23642;SDS011;11998;55.788;37.572;2022-08-19T03:54:54;12.98;;;5.75;;
23642;SDS011;11998;55.788;37.572;2022-08-19T03:55:55;9.70;;;5.80;;
23642;SDS011;11998;55.788;37.572;2022-08-19T03:56:57;14.55;;;5.70;;
23642;SDS011;11998;55.788;37.572;2022-08-19T03:57:57;15.82;;;5.97;;
23642;SDS011;11998;55.788;37.572;2022-08-19T03:58:58;11.18;;;6.10;;
23642;SDS011;11998;55.788;37.572;2022-08-19T04:00:00;12.75;;;5.78;;
23642;SDS011;11998;55.788;37.572;2022-08-19T04:01:01;9.57;;;5.45;;
23642;SDS011;11998;55.788;37.572;2022-08-19T04:02:02;9.80;;;5.80;;
23642;SDS011;11998;55.788;37.572;2022-08-19T04:03:08;15.10;;;6.18;;
23642;SDS011;11998;55.788;37.572;2022-08-19T04:04:09;11.45;;;5.25;;
23642;SDS011;11998;55.788;37.572;2022-08-19T04:05:10;14.50;;;5.65;;
23642;SDS011;11998;55.788;37.572;2022-08-19T04:06:14;9.82;;;5.85;;
23642;SDS011;11998;55.788;37.572;2022-08-19T04:07:18;15.75;;;5.65;;
23642;SDS011;11998;55.788;37.572;2022-08-19T04:08:21;13.63;;;5.38;;
23642;SDS011;11998;55.788;37.572;2022-08-19T04:09:22;8.50;;;5.13;;
23642;SDS011;11998;55.788;37.572;2022-08-19T04:10:22;11.63;;;4.72;;
23642;SDS011;11998;55.788;37.572;2022-08-19T04:11:25;10.50;;;5.22;;
23642;SDS011;11998;55.788;37.572;2022-08-19T04:12:28;9.23;;;5.30;;
23642;SDS011;11998;55.788;37.572;2022-08-19T04:13:29;11.60;;;5.18;;
23642;SDS011;11998;55.788;37.572;2022-08-19T04:14:29;10.65;;;5.13;;
23642;SDS011;11998;55.788;37.572;2022-08-19T04:15:30;10.13;;;4.85;;
23642;SDS011;11998;55.788;37.572;2022-08-19T04:16:35;12.43;;;4.70;;
23642;SDS011;11998;55.788;37.572;2022-08-19T04:17:36;9.52;;;4.60;;
23642;SDS011;11998;55.788;37.572;2022-08-19T04:18:37;7.45;;;5.13;;
23642;SDS011;11998;55.788;37.572;2022-08-19T04:19:39;14.63;;;5.10;;
23642;SDS011;11998;55.788;37.572;2022-08-19T04:20:45;7.55;;;4.22;;
23642;SDS011;11998;55.788;37.572;2022-08-19T04:21:48;9.52;;;4.60;;
23642;SDS011;11998;55.788;37.572;2022-08-19T04:22:51;7.80;;;4.45;;
23642;SDS011;11998;55.788;37.572;2022-08-19T04:23:51;10.75;;;4.85;;
23642;SDS011;11998;55.788;37.572;2022-08-19T04:24:52;12.00;;;4.43;;
23642;SDS011;11998;55.788;37.572;2022-08-19T04:25:52;11.25;;;4.70;;
23642;SDS011;11998;55.788;37.572;2022-08-19T04:26:53;8.10;;;4.28;;
23642;SDS011;11998;55.788;37.572;2022-08-19T04:27:54;18.40;;;8.70;;
23642;SDS011;11998;55.788;37.572;2022-08-19T04:28:54;7.72;;;4.50;;
23642;SDS011;11998;55.788;37.572;2022-08-19T04:29:55;8.95;;;4.60;;
23642;SDS011;11998;55.788;37.572;2022-08-19T04:30:56;5.93;;;4.43;;
23642;SDS011;11998;55.788;37.572;2022-08-19T04:31:56;10.95;;;4.38;;
23642;SDS011;11998;55.788;37.572;2022-08-19T04:32:58;8.35;;;5.47;;
23642;SDS011;11998;55.788;37.572;2022-08-19T04:33:59;8.07;;;4.45;;
23642;SDS011;11998;55.788;37.572;2022-08-19T04:35:02;10.05;;;4.45;;
23642;SDS011;11998;55.788;37.572;2022-08-19T04:36:02;8.98;;;4.75;;
23642;SDS011;11998;55.788;37.572;2022-08-19T04:37:04;9.95;;;4.47;;
23642;SDS011;11998;55.788;37.572;2022-08-19T04:38:08;9.57;;;4.78;;
23642;SDS011;11998;55.788;37.572;2022-08-19T04:39:10;6.53;;;3.97;;
23642;SDS011;11998;55.788;37.572;2022-08-19T04:40:13;8.55;;;4.20;;
23642;SDS011;11998;55.788;37.572;2022-08-19T04:41:49;12.20;;;4.13;;
23642;SDS011;11998;55.788;37.572;2022-08-19T04:43:09;8.82;;;4.03;;
23642;SDS011;11998;55.788;37.572;2022-08-19T04:44:12;8.65;;;4.43;;
23642;SDS011;11998;55.788;37.572;2022-08-19T04:45:14;8.63;;;4.10;;
23642;SDS011;11998;55.788;37.572;2022-08-19T04:46:14;8.15;;;4.18;;
23642;SDS011;11998;55.788;37.572;2022-08-19T04:47:16;9.00;;;4.60;;
23642;SDS011;11998;55.788;37.572;2022-08-19T04:48:17;12.50;;;5.10;;
23642;SDS011;11998;55.788;37.572;2022-08-19T04:49:22;5.15;;;3.92;;
23642;SDS011;11998;55.788;37.572;2022-08-19T04:50:27;9.88;;;5.07;;
23642;SDS011;11998;55.788;37.572;2022-08-19T04:51:28;14.85;;;5.15;;
23642;SDS011;11998;55.788;37.572;2022-08-19T04:52:31;8.45;;;4.40;;
23642;SDS011;11998;55.788;37.572;2022-08-19T04:53:32;15.63;;;6.13;;
23642;SDS011;11998;55.788;37.572;2022-08-19T04:54:34;9.40;;;4.40;;
23642;SDS011;11998;55.788;37.572;2022-08-19T04:55:37;9.70;;;3.92;;
23642;SDS011;11998;55.788;37.572;2022-08-19T04:56:39;6.80;;;3.78;;
23642;SDS011;11998;55.788;37.572;2022-08-19T04:57:40;9.95;;;3.78;;
23642;SDS011;11998;55.788;37.572;2022-08-19T04:58:42;8.20;;;3.92;;
23642;SDS011;11998;55.788;37.572;2022-08-19T04:59:44;8.35;;;4.55;;
23642;SDS011;11998;55.788;37.572;2022-08-19T05:00:45;6.25;;;4.13;;
23642;SDS011;11998;55.788;37.572;2022-08-19T05:01:45;8.15;;;3.63;;
23642;SDS011;11998;55.788;37.572;2022-08-19T05:02:49;8.20;;;4.22;;
23642;SDS011;11998;55.788;37.572;2022-08-19T05:03:50;10.88;;;4.10;;
23642;SDS011;11998;55.788;37.572;2022-08-19T05:04:56;13.30;;;4.68;;
23642;SDS011;11998;55.788;37.572;2022-08-19T05:06:09;8.30;;;3.72;;
23642;SDS011;11998;55.788;37.572;2022-08-19T05:07:12;6.50;;;4.57;;
23642;SDS011;11998;55.788;37.572;2022-08-19T05:08:13;5.25;;;3.72;;
23642;SDS011;11998;55.788;37.572;2022-08-19T05:09:19;7.88;;;4.22;;
23642;SDS011;11998;55.788;37.572;2022-08-19T05:10:21;10.75;;;3.55;;
23642;SDS011;11998;55.788;37.572;2022-08-19T05:11:23;6.68;;;3.83;;
23642;SDS011;11998;55.788;37.572;2022-08-19T05:12:26;12.68;;;4.10;;
23642;SDS011;11998;55.788;37.572;2022-08-19T05:13:28;9.23;;;4.00;;
23642;SDS011;11998;55.788;37.572;2022-08-19T05:14:29;7.43;;;3.83;;
23642;SDS011;11998;55.788;37.572;2022-08-19T05:15:30;7.68;;;4.03;;
23642;SDS011;11998;55.788;37.572;2022-08-19T05:16:31;9.05;;;4.18;;
23642;SDS011;11998;55.788;37.572;2022-08-19T05:17:32;8.05;;;3.80;;
23642;SDS011;11998;55.788;37.572;2022-08-19T05:18:32;7.75;;;3.75;;
23642;SDS011;11998;55.788;37.572;2022-08-19T05:19:51;8.88;;;3.83;;
23642;SDS011;11998;55.788;37.572;2022-08-19T05:21:11;14.85;;;4.18;;
23642;SDS011;11998;55.788;37.572;2022-08-19T05:22:31;11.07;;;4.18;;
23642;SDS011;11998;55.788;37.572;2022-08-19T05:23:35;9.02;;;3.70;;
23642;SDS011;11998;55.788;37.572;2022-08-19T05:24:35;9.68;;;4.30;;
23642;SDS011;11998;55.788;37.572;2022-08-19T05:25:38;8.27;;;3.80;;
23642;SDS011;11998;55.788;37.572;2022-08-19T05:26:40;9.85;;;3.72;;
23642;SDS011;11998;55.788;37.572;2022-08-19T05:27:42;10.35;;;3.70;;
23642;SDS011;11998;55.788;37.572;2022-08-19T05:28:43;6.85;;;4.03;;
23642;SDS011;11998;55.788;37.572;2022-08-19T05:29:43;8.93;;;4.50;;
23642;SDS011;11998;55.788;37.572;2022-08-19T05:30:44;9.77;;;4.07;;
23642;SDS011;11998;55.788;37.572;2022-08-19T05:31:45;8.45;;;3.72;;
23642;SDS011;11998;55.788;37.572;2022-08-19T05:32:49;13.70;;;4.38;;
23642;SDS011;11998;55.788;37.572;2022-08-19T05:33:49;9.77;;;4.50;;
23642;SDS011;11998;55.788;37.572;2022-08-19T05:34:50;8.45;;;3.88;;
23642;SDS011;11998;55.788;37.572;2022-08-19T05:35:51;14.23;;;4.07;;
23642;SDS011;11998;55.788;37.572;2022-08-19T05:36:53;8.13;;;3.90;;
23642;SDS011;11998;55.788;37.572;2022-08-19T05:37:57;13.73;;;4.20;;
23642;SDS011;11998;55.788;37.572;2022-08-19T05:38:57;7.43;;;3.72;;
23642;SDS011;11998;55.788;37.572;2022-08-19T05:39:58;9.02;;;3.88;;
23642;SDS011;11998;55.788;37.572;2022-08-19T05:40:58;12.48;;;4.07;;
23642;SDS011;11998;55.788;37.572;2022-08-19T05:42:00;7.70;;;4.20;;
23642;SDS011;11998;55.788;37.572;2022-08-19T05:43:07;11.45;;;4.00;;
23642;SDS011;11998;55.788;37.572;2022-08-19T05:44:08;8.38;;;4.25;;
23642;SDS011;11998;55.788;37.572;2022-08-19T05:45:10;8.20;;;4.32;;
23642;SDS011;11998;55.788;37.572;2022-08-19T05:46:18;8.25;;;3.72;;
23642;SDS011;11998;55.788;37.572;2022-08-19T05:47:19;9.55;;;4.28;;
23642;SDS011;11998;55.788;37.572;2022-08-19T05:48:20;7.68;;;3.80;;
23642;SDS011;11998;55.788;37.572;2022-08-19T05:49:21;13.63;;;4.30;;
23642;SDS011;11998;55.788;37.572;2022-08-19T05:50:22;13.50;;;4.40;;
23642;SDS011;11998;55.788;37.572;2022-08-19T05:51:23;7.40;;;4.20;;
23642;SDS011;11998;55.788;37.572;2022-08-19T05:52:24;7.50;;;4.32;;
23642;SDS011;11998;55.788;37.572;2022-08-19T05:53:27;7.47;;;4.22;;
23642;SDS011;11998;55.788;37.572;2022-08-19T05:54:27;8.00;;;4.07;;
23642;SDS011;11998;55.788;37.572;2022-08-19T05:55:28;10.93;;;4.65;;
23642;SDS011;11998;55.788;37.572;2022-08-19T05:56:28;11.15;;;5.38;;
23642;SDS011;11998;55.788;37.572;2022-08-19T05:57:30;6.78;;;4.35;;
23642;SDS011;11998;55.788;37.572;2022-08-19T05:58:31;10.55;;;5.38;;
23642;SDS011;11998;55.788;37.572;2022-08-19T05:59:33;11.55;;;4.43;;
23642;SDS011;11998;55.788;37.572;2022-08-19T06:00:36;7.10;;;4.10;;
23642;SDS011;11998;55.788;37.572;2022-08-19T06:01:38;9.52;;;3.92;;
23642;SDS011;11998;55.788;37.572;2022-08-19T06:02:39;7.20;;;4.10;;
23642;SDS011;11998;55.788;37.572;2022-08-19T06:03:40;17.25;;;4.68;;
23642;SDS011;11998;55.788;37.572;2022-08-19T06:04:41;12.07;;;4.20;;
23642;SDS011;11998;55.788;37.572;2022-08-19T06:05:42;8.13;;;4.45;;
23642;SDS011;11998;55.788;37.572;2022-08-19T06:06:43;12.43;;;4.20;;